createdAt,value
2023-05-19T00:02:00.248Z,87.43
2023-05-19T00:04:27.645Z,87.04
2023-05-19T00:06:54.537Z,86.78
2023-05-19T00:09:21.697Z,88.71
2023-05-19T00:11:48.693Z,87.79
2023-05-19T00:14:15.506Z,91.76
2023-05-19T00:16:42.771Z,89.06
2023-05-19T00:19:12.282Z,91.65
2023-05-19T00:21:39.019Z,92.37
2023-05-19T00:24:06.970Z,91.02
2023-05-19T00:26:33.694Z,91.24
2023-05-19T00:29:00.836Z,91.47
2023-05-19T00:31:27.816Z,91.62
2023-05-19T00:33:54.432Z,93.02
2023-05-19T00:36:21.071Z,91.66
2023-05-19T00:38:47.552Z,93.62
2023-05-19T00:41:14.441Z,91.79
2023-05-19T00:43:41.454Z,93.56
2023-05-19T00:46:07.916Z,92.62
2023-05-19T00:48:34.472Z,92.14
2023-05-19T00:51:04.826Z,93.58
2023-05-19T00:53:33.524Z,92.97
2023-05-19T00:56:01.022Z,92.98
2023-05-19T00:58:30.315Z,92.05
2023-05-19T01:01:03.263Z,93.20
2023-05-19T01:03:32.049Z,93.30
2023-05-19T01:06:01.646Z,92.56
2023-05-19T01:08:29.295Z,92.44
2023-05-19T01:10:55.973Z,92.79
2023-05-19T01:13:22.819Z,92.98
2023-05-19T01:15:56.023Z,91.88
2023-05-19T01:18:33.649Z,94.04
2023-05-19T01:21:36.296Z,93.20
2023-05-19T01:24:34.130Z,93.31
2023-05-19T01:27:21.617Z,93.37
2023-05-19T01:30:25.479Z,94.32
2023-05-19T01:32:59.112Z,94.92
2023-05-19T01:35:26.607Z,94.37
2023-05-19T01:37:56.879Z,93.57
2023-05-19T01:40:25.285Z,93.95
2023-05-19T01:42:57.991Z,94.13
2023-05-19T01:45:25.852Z,93.43
2023-05-19T01:47:55.963Z,94.60
2023-05-19T01:50:23.156Z,94.91
2023-05-19T01:52:50.373Z,94.15
2023-05-19T01:55:17.120Z,93.83
2023-05-19T01:57:46.755Z,93.91
2023-05-19T02:00:40.276Z,94.93
2023-05-19T02:03:47.609Z,95.02
2023-05-19T02:06:35.981Z,94.95
2023-05-19T02:09:12.043Z,95.40
2023-05-19T02:11:57.513Z,96.24
2023-05-19T02:14:37.422Z,96.95
2023-05-19T02:17:05.052Z,95.71
2023-05-19T02:19:34.467Z,96.04
2023-05-19T02:22:01.173Z,97.01
2023-05-19T02:24:27.778Z,97.90
2023-05-19T02:26:54.663Z,98.57
2023-05-19T02:29:21.533Z,97.97
2023-05-19T02:31:48.223Z,97.95
2023-05-19T02:34:14.948Z,99.01
2023-05-19T02:36:43.102Z,99.41
2023-05-19T02:39:11.049Z,99.41
2023-05-19T02:41:38.646Z,99.17
2023-05-19T02:44:05.605Z,98.42
2023-05-19T02:46:32.172Z,98.52
2023-05-19T02:48:59.215Z,100.00
2023-05-19T02:51:25.811Z,99.51
2023-05-19T02:53:52.303Z,100.00
2023-05-19T02:56:18.798Z,100.00
2023-05-19T02:58:45.373Z,99.48
2023-05-19T03:01:12.116Z,99.52
2023-05-19T03:03:38.654Z,99.13
2023-05-19T03:06:08.607Z,99.18
2023-05-19T03:08:36.037Z,99.01
2023-05-19T03:11:03.030Z,100.00
2023-05-19T03:13:30.173Z,100.00
2023-05-19T03:15:58.717Z,100.00
2023-05-19T03:18:26.867Z,100.00
2023-05-19T03:20:56.424Z,100.00
2023-05-19T03:23:23.221Z,100.00
2023-05-19T03:25:49.844Z,99.92
2023-05-19T03:28:17.174Z,100.00
2023-05-19T03:30:43.807Z,100.00
2023-05-19T03:33:10.612Z,100.00
2023-05-19T03:35:37.431Z,100.00
2023-05-19T03:38:04.005Z,100.00
2023-05-19T03:40:30.608Z,100.00
2023-05-19T03:42:57.323Z,100.00
2023-05-19T03:45:23.853Z,100.00
2023-05-19T03:47:50.615Z,100.00
2023-05-19T03:50:17.146Z,100.00
2023-05-19T03:52:48.051Z,100.00
2023-05-19T03:55:14.861Z,100.00
2023-05-19T03:57:41.894Z,100.00
2023-05-19T04:00:11.172Z,100.00
2023-05-19T04:02:38.145Z,100.00
2023-05-19T04:05:05.143Z,100.00
2023-05-19T04:07:31.939Z,100.00
2023-05-19T04:09:58.549Z,100.00
2023-05-19T04:12:25.258Z,100.00
2023-05-19T04:14:51.848Z,100.00
2023-05-19T04:17:18.442Z,100.00
2023-05-19T04:19:45.090Z,100.00
2023-05-19T04:22:11.667Z,100.00
2023-05-19T04:24:38.189Z,100.00
2023-05-19T04:27:05.007Z,100.00
2023-05-19T04:29:32.554Z,100.00
2023-05-19T04:32:00.943Z,100.00
2023-05-19T04:34:28.678Z,100.00
2023-05-19T04:36:55.504Z,100.00
2023-05-19T04:39:22.177Z,100.00
2023-05-19T04:41:48.779Z,100.00
2023-05-19T04:44:18.096Z,100.00
2023-05-19T04:46:45.430Z,100.00
2023-05-19T04:49:14.872Z,100.00
2023-05-19T04:51:42.294Z,100.00
2023-05-19T04:54:09.963Z,100.00
2023-05-19T04:56:36.900Z,100.00
2023-05-19T04:59:03.683Z,100.00
2023-05-19T05:01:31.199Z,100.00
2023-05-19T05:03:59.312Z,100.00
2023-05-19T05:06:26.596Z,100.00
2023-05-19T05:08:53.245Z,100.00
2023-05-19T05:11:20.603Z,100.00
2023-05-19T05:13:47.483Z,100.00
2023-05-19T05:16:14.763Z,100.00
2023-05-19T05:18:44.376Z,100.00
2023-05-19T05:21:11.916Z,100.00
2023-05-19T05:23:38.842Z,100.00
2023-05-19T05:26:16.017Z,100.00
2023-05-19T05:28:42.680Z,100.00
2023-05-19T05:31:09.224Z,100.00
2023-05-19T05:33:36.207Z,100.00
2023-05-19T05:36:02.858Z,100.00
2023-05-19T05:38:29.807Z,100.00
2023-05-19T05:40:56.337Z,100.00
2023-05-19T05:43:22.966Z,100.00
2023-05-19T05:45:49.498Z,100.00
2023-05-19T05:48:16.443Z,100.00
2023-05-19T05:50:44.201Z,100.00
2023-05-19T05:53:17.502Z,100.00
2023-05-19T05:55:44.269Z,100.00
2023-05-19T05:58:11.240Z,100.00
2023-05-19T06:00:38.442Z,100.00
2023-05-19T06:03:05.885Z,100.00
2023-05-19T06:05:32.867Z,99.50
2023-05-19T06:07:59.403Z,98.23
2023-05-19T06:10:26.243Z,98.34
2023-05-19T06:12:52.719Z,99.03
2023-05-19T06:15:19.601Z,98.64
2023-05-19T06:17:46.305Z,97.57
2023-05-19T06:20:13.720Z,96.24
2023-05-19T06:22:40.991Z,96.52
2023-05-19T06:25:08.962Z,96.26
2023-05-19T06:27:35.926Z,96.03
2023-05-19T06:30:02.774Z,93.54
2023-05-19T06:32:29.889Z,93.69
2023-05-19T06:34:56.507Z,94.46
2023-05-19T06:37:23.652Z,93.47
2023-05-19T06:39:52.368Z,92.00
2023-05-19T06:42:22.979Z,92.58
2023-05-19T06:44:50.424Z,91.20
2023-05-19T06:47:17.941Z,92.61
2023-05-19T06:49:45.218Z,92.12
2023-05-19T06:52:12.119Z,92.72
2023-05-19T06:54:38.683Z,90.43
2023-05-19T06:57:05.725Z,91.01
2023-05-19T06:59:32.834Z,90.86
2023-05-19T07:01:59.374Z,87.99
2023-05-19T07:04:26.144Z,88.82
2023-05-19T07:06:53.380Z,90.49
2023-05-19T07:09:20.786Z,91.71
2023-05-19T07:11:47.780Z,87.95
2023-05-19T07:14:14.394Z,87.17
2023-05-19T07:16:41.527Z,89.23
2023-05-19T07:19:08.067Z,85.21
2023-05-19T07:21:34.897Z,81.58
2023-05-19T07:24:01.680Z,83.21
2023-05-19T07:26:29.233Z,84.89
2023-05-19T07:28:55.904Z,81.25
2023-05-19T07:31:22.503Z,79.54
2023-05-19T07:33:49.199Z,78.70
2023-05-19T07:36:16.322Z,84.67
2023-05-19T07:38:44.157Z,85.05
2023-05-19T07:41:10.962Z,82.78
2023-05-19T07:43:37.575Z,79.07
2023-05-19T07:46:04.664Z,75.17
2023-05-19T07:48:31.759Z,75.95
2023-05-19T07:50:58.402Z,73.30
2023-05-19T07:53:25.381Z,72.02
2023-05-19T07:55:51.937Z,79.11
2023-05-19T07:58:18.997Z,75.33
2023-05-19T08:00:46.084Z,71.71
2023-05-19T08:03:13.359Z,74.00
2023-05-19T08:05:40.617Z,71.26
2023-05-19T08:08:07.322Z,71.35
2023-05-19T08:10:34.324Z,71.81
2023-05-19T08:13:01.411Z,70.77
2023-05-19T08:15:28.551Z,71.29
2023-05-19T08:17:55.240Z,71.20
2023-05-19T08:20:22.882Z,70.04
2023-05-19T08:22:49.918Z,69.63
2023-05-19T08:25:16.499Z,75.17
2023-05-19T08:27:43.097Z,71.02
2023-05-19T08:30:10.254Z,71.20
2023-05-19T08:32:37.001Z,66.71
2023-05-19T08:35:04.241Z,67.55
2023-05-19T08:37:32.031Z,68.41
2023-05-19T08:40:00.683Z,68.64
2023-05-19T08:42:27.487Z,66.46
2023-05-19T08:44:54.013Z,65.24
2023-05-19T08:47:20.768Z,63.74
2023-05-19T08:49:52.312Z,65.13
2023-05-19T08:52:47.856Z,59.05
2023-05-19T08:55:36.424Z,61.68
2023-05-19T08:58:04.574Z,61.02
2023-05-19T09:00:32.577Z,59.37
2023-05-19T09:03:10.883Z,60.69
2023-05-19T09:05:46.271Z,57.56
2023-05-19T09:08:13.206Z,61.51
2023-05-19T09:10:39.962Z,61.76
2023-05-19T09:13:06.824Z,60.29
2023-05-19T09:15:36.794Z,57.17
2023-05-19T09:18:08.986Z,58.92
2023-05-19T09:20:43.728Z,58.13
2023-05-19T09:23:15.786Z,58.07
2023-05-19T09:25:53.359Z,56.89
2023-05-19T09:28:29.338Z,55.92
2023-05-19T09:31:00.043Z,58.49
2023-05-19T09:33:28.293Z,58.17
2023-05-19T09:35:58.700Z,56.88
2023-05-19T09:38:26.807Z,57.05
2023-05-19T09:40:56.988Z,55.50
2023-05-19T09:43:24.255Z,58.00
2023-05-19T09:45:59.392Z,56.30
2023-05-19T09:48:27.794Z,55.63
2023-05-19T09:50:54.887Z,55.73
2023-05-19T09:53:22.143Z,56.32
2023-05-19T09:55:49.812Z,54.52
2023-05-19T09:58:18.519Z,54.97
2023-05-19T10:00:46.903Z,54.28
2023-05-19T10:03:14.003Z,53.98
2023-05-19T10:05:42.032Z,56.34
2023-05-19T10:08:10.325Z,55.76
2023-05-19T10:10:38.208Z,56.56
2023-05-19T10:13:06.065Z,56.03
2023-05-19T10:15:36.101Z,49.20
2023-05-19T10:18:07.730Z,42.48
2023-05-19T10:20:35.172Z,34.10
2023-05-19T10:23:03.911Z,32.12
2023-05-19T10:25:33.237Z,30.30
2023-05-19T10:28:10.598Z,30.80
2023-05-19T10:30:41.852Z,27.96
2023-05-19T10:33:12.906Z,34.40
2023-05-19T10:35:55.238Z,36.21
2023-05-19T10:38:43.234Z,37.89
2023-05-19T10:41:16.577Z,35.93
2023-05-19T10:44:28.333Z,36.44
2023-05-19T10:46:56.819Z,35.31
2023-05-19T10:49:24.254Z,30.75
2023-05-19T10:51:56.476Z,28.52
2023-05-19T10:54:47.290Z,26.32
2023-05-19T10:57:17.355Z,26.99
2023-05-19T10:59:47.229Z,34.09
2023-05-19T11:02:42.909Z,39.10
2023-05-19T11:05:11.155Z,39.29
2023-05-19T11:07:42.234Z,41.55
2023-05-19T11:10:09.315Z,35.29
2023-05-19T11:12:45.410Z,34.41
2023-05-19T11:15:14.589Z,32.65
2023-05-19T11:17:42.707Z,33.75
2023-05-19T11:20:20.757Z,36.39
2023-05-19T11:23:04.149Z,33.63
2023-05-19T11:25:47.111Z,35.04
2023-05-19T11:28:25.650Z,34.89
2023-05-19T11:30:54.016Z,35.07
2023-05-19T11:33:21.522Z,34.59
2023-05-19T11:35:50.323Z,34.51
2023-05-19T11:38:18.471Z,36.69
2023-05-19T11:40:45.828Z,36.52
2023-05-19T11:43:12.257Z,36.72
2023-05-19T11:45:39.085Z,35.22
2023-05-19T11:48:06.923Z,39.09
2023-05-19T11:50:33.659Z,38.41
2023-05-19T11:53:01.241Z,33.22
2023-05-19T11:55:28.540Z,41.74
2023-05-19T11:58:03.039Z,36.60
2023-05-19T12:00:39.058Z,34.63
2023-05-19T12:03:06.808Z,37.16
2023-05-19T12:05:40.908Z,38.41
2023-05-19T12:08:10.095Z,36.70
2023-05-19T12:10:37.046Z,38.61
2023-05-19T12:13:03.602Z,36.70
2023-05-19T12:15:31.813Z,38.55
2023-05-19T12:18:01.827Z,37.15
2023-05-19T12:20:32.310Z,33.01
2023-05-19T12:23:00.411Z,36.10
2023-05-19T12:25:28.986Z,32.28
2023-05-19T12:27:59.812Z,37.33
2023-05-19T12:30:28.751Z,33.44
2023-05-19T12:32:57.740Z,33.62
2023-05-19T12:35:28.896Z,33.80
2023-05-19T12:37:55.807Z,36.55
2023-05-19T12:40:22.559Z,37.35
2023-05-19T12:42:52.097Z,34.22
2023-05-19T12:45:22.135Z,39.53
2023-05-19T12:47:50.179Z,32.24
2023-05-19T12:50:16.846Z,34.27
2023-05-19T12:52:51.113Z,32.30
2023-05-19T12:55:20.482Z,32.69
2023-05-19T12:57:54.651Z,35.33
2023-05-19T13:00:22.827Z,31.82
2023-05-19T13:02:56.915Z,31.59
2023-05-19T13:05:24.011Z,32.29
2023-05-19T13:07:55.518Z,32.71
2023-05-19T13:10:23.039Z,31.39
2023-05-19T13:12:49.739Z,35.44
2023-05-19T13:15:16.478Z,34.08
2023-05-19T13:17:46.634Z,32.65
2023-05-19T13:20:13.396Z,34.15
2023-05-19T13:22:41.312Z,32.16
2023-05-19T13:25:08.358Z,33.03
2023-05-19T13:27:35.354Z,33.81
2023-05-19T13:30:03.102Z,35.13
2023-05-19T13:32:30.125Z,33.72
2023-05-19T13:34:57.266Z,31.60
2023-05-19T13:37:23.861Z,32.59
2023-05-19T13:39:50.479Z,32.46
2023-05-19T13:42:17.597Z,33.45
2023-05-19T13:44:47.688Z,32.89
2023-05-19T13:47:14.471Z,31.29
2023-05-19T13:49:41.656Z,34.40
2023-05-19T13:52:08.220Z,33.84
2023-05-19T13:54:34.951Z,30.62
2023-05-19T13:57:01.654Z,32.71
2023-05-19T13:59:28.488Z,31.16
2023-05-19T14:01:55.284Z,30.59
2023-05-19T14:04:21.925Z,31.04
2023-05-19T14:06:48.549Z,31.92
2023-05-19T14:09:15.049Z,29.05
2023-05-19T14:11:42.097Z,30.35
2023-05-19T14:14:09.422Z,32.23
2023-05-19T14:16:38.408Z,31.23
2023-05-19T14:19:05.454Z,30.09
2023-05-19T14:21:32.945Z,31.23
2023-05-19T14:23:59.481Z,31.93
2023-05-19T14:26:27.505Z,31.89
2023-05-19T14:28:56.998Z,31.67
2023-05-19T14:31:23.858Z,30.81
2023-05-19T14:33:51.509Z,31.14
2023-05-19T14:36:17.983Z,31.44
2023-05-19T14:38:44.449Z,31.42
2023-05-19T14:41:11.059Z,30.04
2023-05-19T14:43:37.594Z,31.26
2023-05-19T14:46:04.133Z,32.93
2023-05-19T14:48:30.808Z,30.59
2023-05-19T14:50:57.447Z,32.04
2023-05-19T14:53:24.049Z,30.59
2023-05-19T14:55:50.612Z,30.36
2023-05-19T14:58:28.288Z,33.88
2023-05-19T15:00:57.608Z,34.95
2023-05-19T15:03:24.764Z,37.48
2023-05-19T15:05:51.453Z,37.67
2023-05-19T15:08:17.976Z,35.80
2023-05-19T15:10:48.555Z,32.40
2023-05-19T15:13:16.010Z,32.92
2023-05-19T15:15:42.595Z,32.81
2023-05-19T15:18:09.403Z,31.24
2023-05-19T15:20:36.316Z,31.32
2023-05-19T15:23:02.849Z,32.14
2023-05-19T15:25:29.826Z,30.46
2023-05-19T15:27:56.493Z,33.87
2023-05-19T15:30:23.170Z,29.72
2023-05-19T15:32:49.794Z,33.42
2023-05-19T15:35:16.751Z,31.48
2023-05-19T15:37:43.489Z,32.91
2023-05-19T15:40:10.726Z,33.49
2023-05-19T15:42:37.400Z,33.63
2023-05-19T15:45:04.309Z,32.49
2023-05-19T15:47:31.102Z,33.61
2023-05-19T15:49:57.740Z,35.65
2023-05-19T15:52:24.389Z,32.64
2023-05-19T15:54:50.784Z,32.88
2023-05-19T15:57:17.311Z,38.08
2023-05-19T15:59:43.869Z,35.07
2023-05-19T16:02:11.056Z,40.99
2023-05-19T16:04:37.739Z,35.03
2023-05-19T16:07:05.231Z,34.91
2023-05-19T16:09:32.004Z,35.20
2023-05-19T16:11:58.654Z,37.26
2023-05-19T16:14:27.504Z,39.14
2023-05-19T16:16:54.033Z,34.83
2023-05-19T16:19:20.683Z,35.75
2023-05-19T16:21:47.638Z,34.38
2023-05-19T16:24:14.261Z,35.70
2023-05-19T16:26:40.977Z,36.96
2023-05-19T16:29:07.415Z,37.06
2023-05-19T16:31:34.034Z,37.90
2023-05-19T16:34:00.557Z,38.22
2023-05-19T16:36:27.226Z,40.72
2023-05-19T16:38:54.151Z,43.52
2023-05-19T16:41:21.592Z,41.07
2023-05-19T16:43:48.218Z,40.97
2023-05-19T16:46:14.853Z,38.91
2023-05-19T16:48:41.720Z,44.58
2023-05-19T16:51:08.235Z,41.72
2023-05-19T16:53:34.893Z,41.48
2023-05-19T16:56:01.532Z,38.32
2023-05-19T16:58:28.887Z,39.07
2023-05-19T17:00:57.663Z,42.14
2023-05-19T17:03:24.268Z,46.83
2023-05-19T17:05:51.055Z,46.14
2023-05-19T17:08:17.825Z,44.83
2023-05-19T17:10:44.773Z,41.32
2023-05-19T17:13:11.733Z,43.05
2023-05-19T17:15:38.795Z,46.86
2023-05-19T17:18:06.160Z,40.99
2023-05-19T17:20:32.825Z,44.53
2023-05-19T17:22:59.527Z,45.58
2023-05-19T17:25:26.056Z,44.04
2023-05-19T17:27:52.503Z,43.52
2023-05-19T17:30:19.251Z,47.88
2023-05-19T17:32:46.186Z,44.16
2023-05-19T17:35:12.802Z,45.85
2023-05-19T17:37:39.318Z,45.11
2023-05-19T17:40:06.628Z,45.20
2023-05-19T17:42:33.466Z,47.44
2023-05-19T17:45:00.083Z,51.18
2023-05-19T17:47:26.593Z,50.59
2023-05-19T17:49:53.125Z,48.59
2023-05-19T17:52:20.500Z,51.81
2023-05-19T17:54:47.384Z,53.82
2023-05-19T17:57:16.058Z,51.71
2023-05-19T17:59:42.517Z,51.53
2023-05-19T18:02:09.756Z,51.64
2023-05-19T18:04:36.654Z,53.66
2023-05-19T18:07:04.414Z,55.14
2023-05-19T18:09:33.128Z,53.72
2023-05-19T18:12:02.191Z,57.56
2023-05-19T18:14:28.990Z,60.34
2023-05-19T18:16:55.783Z,63.50
2023-05-19T18:19:22.687Z,65.41
2023-05-19T18:21:49.347Z,63.62
2023-05-19T18:24:16.130Z,62.92
2023-05-19T18:26:43.417Z,64.71
2023-05-19T18:29:10.890Z,62.69
2023-05-19T18:31:38.271Z,64.82
2023-05-19T18:34:04.759Z,66.52
2023-05-19T18:36:31.506Z,64.02
2023-05-19T18:38:59.236Z,63.20
2023-05-19T18:41:26.091Z,63.79
2023-05-19T18:43:52.704Z,67.50
2023-05-19T18:46:19.539Z,63.81
2023-05-19T18:48:47.073Z,65.38
2023-05-19T18:51:15.700Z,66.75
2023-05-19T18:53:42.564Z,66.51
2023-05-19T18:56:10.887Z,68.52
2023-05-19T18:58:37.465Z,67.95
2023-05-19T19:01:05.011Z,67.09
2023-05-19T19:03:31.635Z,67.02
2023-05-19T19:05:59.990Z,68.64
2023-05-19T19:08:26.605Z,67.19
2023-05-19T19:10:59.015Z,68.42
2023-05-19T19:13:25.760Z,68.62
2023-05-19T19:15:52.294Z,68.32
2023-05-19T19:18:19.191Z,67.88
2023-05-19T19:20:46.149Z,69.07
2023-05-19T19:23:13.067Z,69.51
2023-05-19T19:25:39.498Z,69.04
2023-05-19T19:28:06.108Z,70.29
2023-05-19T19:30:32.754Z,70.09
2023-05-19T19:33:00.113Z,70.61
2023-05-19T19:35:26.783Z,67.54
2023-05-19T19:37:53.366Z,69.58
2023-05-19T19:40:19.880Z,71.25
2023-05-19T19:42:46.419Z,71.44
2023-05-19T19:45:15.568Z,73.50
2023-05-19T19:47:42.868Z,73.92
2023-05-19T19:50:10.593Z,74.04
2023-05-19T19:52:39.958Z,74.13
2023-05-19T19:55:07.416Z,78.13
2023-05-19T19:57:34.550Z,75.16
2023-05-19T20:00:07.781Z,75.08
2023-05-19T20:02:41.010Z,75.91
2023-05-19T20:05:12.461Z,77.93
2023-05-19T20:07:38.874Z,76.77
2023-05-19T20:10:05.990Z,76.89
2023-05-19T20:12:33.177Z,76.86
2023-05-19T20:15:01.731Z,77.26
2023-05-19T20:17:28.400Z,76.15
2023-05-19T20:19:54.924Z,77.16
2023-05-19T20:22:21.545Z,76.61
2023-05-19T20:24:48.052Z,76.03
2023-05-19T20:27:14.602Z,76.75
2023-05-19T20:29:41.582Z,76.37
2023-05-19T20:32:08.313Z,75.15
2023-05-19T20:34:34.902Z,78.01
2023-05-19T20:37:01.628Z,75.21
2023-05-19T20:39:28.190Z,78.27
2023-05-19T20:41:54.885Z,75.83
2023-05-19T20:44:21.576Z,75.92
2023-05-19T20:46:48.242Z,66.23
2023-05-19T20:49:14.766Z,73.33
2023-05-19T20:51:41.437Z,73.22
2023-05-19T20:54:07.902Z,73.69
2023-05-19T20:56:35.298Z,75.67
2023-05-19T20:59:01.972Z,72.95
2023-05-19T21:01:29.837Z,72.08
2023-05-19T21:03:56.598Z,73.13
2023-05-19T21:06:23.096Z,72.41
2023-05-19T21:08:49.993Z,72.35
2023-05-19T21:11:16.604Z,73.10
2023-05-19T21:13:43.313Z,74.09
2023-05-19T21:16:10.410Z,72.39
2023-05-19T21:18:37.371Z,65.65
2023-05-19T21:21:04.161Z,67.23
2023-05-19T21:23:30.910Z,66.24
2023-05-19T21:25:58.701Z,71.09
2023-05-19T21:28:25.111Z,65.53
2023-05-19T21:30:52.727Z,67.39
2023-05-19T21:33:19.329Z,66.23
2023-05-19T21:35:46.602Z,70.92
2023-05-19T21:38:23.536Z,72.77
2023-05-19T21:40:51.692Z,70.66
2023-05-19T21:43:19.387Z,70.15
2023-05-19T21:45:48.123Z,70.97
2023-05-19T21:48:14.987Z,69.53
2023-05-19T21:50:41.600Z,66.33
2023-05-19T21:53:08.126Z,68.17
2023-05-19T21:55:34.863Z,68.67
2023-05-19T21:58:02.497Z,68.42
2023-05-19T22:00:29.436Z,70.90
2023-05-19T22:02:56.682Z,67.96
2023-05-19T22:05:23.375Z,68.75
2023-05-19T22:07:50.083Z,70.36
2023-05-19T22:10:17.315Z,73.48
2023-05-19T22:12:43.988Z,72.13
2023-05-19T22:15:11.362Z,73.58
2023-05-19T22:17:37.980Z,73.06
2023-05-19T22:20:05.442Z,75.95
2023-05-19T22:22:32.029Z,74.79
2023-05-19T22:24:58.660Z,75.32
2023-05-19T22:27:25.172Z,76.91
2023-05-19T22:29:51.754Z,76.14
2023-05-19T22:32:19.458Z,75.54
2023-05-19T22:34:46.319Z,73.01
2023-05-19T22:37:12.997Z,74.01
2023-05-19T22:39:39.590Z,73.36
2023-05-19T22:42:06.175Z,73.12
2023-05-19T22:44:32.906Z,71.29
2023-05-19T22:46:59.360Z,73.00
2023-05-19T22:49:27.353Z,73.16
2023-05-19T22:51:54.094Z,72.83
2023-05-19T22:54:20.791Z,70.08
2023-05-19T22:56:48.742Z,68.26
2023-05-19T22:59:17.761Z,68.83
2023-05-19T23:01:46.418Z,68.58
2023-05-19T23:04:13.965Z,68.25
2023-05-19T23:06:41.044Z,66.69
2023-05-19T23:09:07.647Z,67.62
2023-05-19T23:11:35.686Z,66.62
2023-05-19T23:14:02.175Z,67.87
2023-05-19T23:16:28.791Z,68.11
2023-05-19T23:18:55.225Z,67.67
2023-05-19T23:21:21.838Z,68.26
2023-05-19T23:23:49.239Z,66.27
2023-05-19T23:26:16.110Z,68.16
2023-05-19T23:28:42.882Z,71.99
2023-05-19T23:31:09.803Z,73.79
2023-05-19T23:33:36.254Z,74.94
2023-05-19T23:36:10.235Z,76.91
2023-05-19T23:38:37.531Z,78.31
2023-05-19T23:41:05.009Z,79.32
2023-05-19T23:43:32.450Z,81.68
2023-05-19T23:45:59.380Z,81.06
2023-05-19T23:48:28.703Z,82.18
2023-05-19T23:50:55.424Z,83.18
2023-05-19T23:53:21.921Z,84.17
2023-05-19T23:55:48.592Z,83.15
2023-05-19T23:58:15.870Z,78.24
